METAR AND TAF INFORMATION
METAR FOR ROAH
ADDS - METARS form results

(2257 UTC 24 October 2021)
Data provider http://aviationweather.gov/metar/data/
 
METAR text: ROAH 242230Z 33008KT 9999 FEW025 24/19 Q1015 RMK 2CU025 A2997
Conditions at: ROAH (NAHA (CIV/JASDF), JP) observed 2230 UTC 24 October 2021
Temperature: 24.0°C (75°F)
Dewpoint: 19.0°C (66°F) [RH = 74%]
Pressure (altimeter): 29.97 inches Hg (1015.0 mb)
Winds: from the NNW (330 degrees) at 9 MPH (8 knots; 4.1 m/s)
Visibility: 6 or more miles (10+ km)
Ceiling: at least 12,000 feet AGL
Clouds: few clouds at 2500 feet AGL
Weather: no significant weather observed at this time

METAR text: ROAH 242200Z 33007KT 9999 FEW020 24/19 Q1014 RMK 2CU020 A2997
Conditions at: ROAH (NAHA (CIV/JASDF), JP) observed 2200 UTC 24 October 2021
Temperature: 24.0°C (75°F)
Dewpoint: 19.0°C (66°F) [RH = 74%]
Pressure (altimeter): 29.94 inches Hg (1014.0 mb)
Winds: from the NNW (330 degrees) at 8 MPH (7 knots; 3.6 m/s)
Visibility: 6 or more miles (10+ km)
Ceiling: at least 12,000 feet AGL
Clouds: few clouds at 2000 feet AGL
Weather: no significant weather observed at this time

Forecast for: ROAH (NAHA (CIV/JASDF), JP)
Text: TAF ROAH 241709Z 2418/2600 36006KT 9999 FEW025 SCT045
Forecast period: 1800 UTC 24 October 2021 to 0400 UTC 25 October 2021
Forecast type: FROM: standard forecast or significant change
Winds: from the N (360 degrees) at 7 MPH (6 knots; 3.1 m/s)
Visibility: 6 or more miles (10+ km)
Ceiling: at least 12,000 feet AGL
Clouds: few clouds at 2500 feet AGL
scattered clouds at 4500 feet AGL
Weather: no significant weather forecast for this period
Text: BECMG 2504/2506 35016KT
Forecast period: 0400 UTC 25 October 2021 to 0000 UTC 26 October 2021
Forecast type: BECOMING: Conditions expected to become as follows by 0600 UTC 25 October 2021
Winds: from the N (350 degrees) at 18 MPH (16 knots; 8.2 m/s)
Visibility: 6 or more miles (10+ km)
Ceiling: at least 12,000 feet AGL
Clouds: few clouds at 2500 feet AGL
scattered clouds at 4500 feet AGL
Weather: no significant weather forecast for this period

 AIRPORT MAP

 RUNWAY INFORMATION
Runway 18 Runway length 9840 ft Runway width 150 ft
Runway elevation 11 ft Runway displaced threshold 138 ft Runway heading 178
Runway 36 Runway length 9840 ft Runway width 150 ft
Runway elevation 9 ft Runway displaced threshold 0 ft Runway heading 358

 AIRPORT FREQUENCIES
Type A/G Name CENTRAL WE Frequency 126.9 MHZ
Type ATIS Name ATIS Frequency 127.8 MHZ
Type CLD Name CLNC DEL Frequency 122.075 MHZ
Type GND Name GND Frequency 121.8 MHZ
Type TWR Name TWR Frequency 118.1 MHZ

 AIRPORT NEAR NAVIGATION AIDS
Type VORTAC Name Naha Frequency 116500 KHZ
Type NDB Name Okinawa Frequency 308 KHZ



Powered by Virtual Airlines Manager [v2.6.2]